Azusa, California
Current Conditions -  °F | °C
As of 4:47 PM on Monday 20 Oct 2014 (Local Time) from KPOC Reporting Station
Clear Clear  
Wind Chill: 25°   Ceiling: Unl
Heat Index: 26°   Visibility: 10mi
Dew Point: 13°   Wind: 10mph
Humidity: 47%   Direction: 260°W
Pressure: 29.9"   Gusts: NA
Location:  34.13°N, 117.9°W
Report Text: KPOC 202347Z 26009KT 10SM CLR 25/13 A2990
Loading
Personal Weather Stations






























Interactive Weather Map
Tropical Storm Tracking
New forecast layout! Learn more

10-Day Weather Forecast

Advertisements
Track Severe Weather on mobile